Time;durP1;ratioP1;P1;durP2;ratioP2;P2;SDS_P1;SDS_P2;PMS_P1;PMS_P2;Temp;Humidity;BMP_temperature;BMP_pressure;BME280_temperature;BME280_humidity;BME280_pressure;Samples;Min_cycle;Max_cycle;Signal;HPM_P1;HPM_P2
2021/12/07 00:01:31;;;;;;;6.38;0.90;;;;;;;;;;4881386;29;20461;-69
2021/12/07 00:04:03;;;;;;;1.73;0.90;;;;;;;;;;4916582;29;20523;-68
2021/12/07 00:06:34;;;;;;;5.93;1.13;;;;;;;;;;4916262;29;20063;-66
2021/12/07 00:09:08;;;;;;;3.83;1.05;;;;;;;;;;4901071;29;20068;-66
2021/12/07 00:11:39;;;;;;;8.70;1.20;;;;;;;;;;4907976;29;20057;-67
2021/12/07 00:14:21;;;;;;;6.63;0.90;;;;;;;;;;4904501;29;20064;-69
2021/12/07 00:16:54;;;;;;;5.40;0.82;;;;;;;;;;4887807;29;20064;-67
2021/12/07 00:19:25;;;;;;;5.35;1.17;;;;;;;;;;4883216;29;20051;-67
2021/12/07 00:21:55;;;;;;;3.17;1.00;;;;;;;;;;4981195;28;20080;-66
2021/12/07 00:24:25;;;;;;;10.27;1.02;;;;;;;;;;5016939;28;20168;-66
2021/12/07 00:26:56;;;;;;;8.40;1.00;;;;;;;;;;4980150;28;20054;-66
2021/12/07 00:29:28;;;;;;;8.68;1.13;;;;;;;;;;5004600;28;20054;-66
2021/12/07 00:32:20;;;;;;;4.32;0.90;;;;;;;;;;5000671;28;20421;-67
2021/12/07 00:37:34;;;;;;;3.35;1.27;;;;;;;;;;4983403;28;20046;-67
2021/12/07 00:40:08;;;;;;;3.42;1.20;;;;;;;;;;4972911;28;20466;-67
2021/12/07 00:42:38;;;;;;;8.63;1.27;;;;;;;;;;4957129;28;20425;-66
2021/12/07 00:45:10;;;;;;;4.30;1.23;;;;;;;;;;4976378;28;20198;-67
2021/12/07 00:47:41;;;;;;;13.25;0.88;;;;;;;;;;4996006;28;20063;-67
2021/12/07 00:50:12;;;;;;;2.78;0.98;;;;;;;;;;5004965;28;20422;-67
2021/12/07 00:52:43;;;;;;;3.08;1.10;;;;;;;;;;4992326;28;20050;-66
2021/12/07 00:55:17;;;;;;;6.53;1.25;;;;;;;;;;4985622;28;20051;-67
2021/12/07 00:57:52;;;;;;;3.15;1.13;;;;;;;;;;4991656;28;20061;-66
2021/12/07 01:00:25;;;;;;;5.40;1.05;;;;;;;;;;4991191;28;20062;-67
2021/12/07 01:02:57;;;;;;;3.25;1.15;;;;;;;;;;4982345;28;20077;-66
2021/12/07 01:05:31;;;;;;;3.38;1.33;;;;;;;;;;4982044;28;20047;-67
2021/12/07 01:24:47;;;;;;;3.60;1.77;;;;;;;;;;4959138;28;20055;-66
2021/12/07 01:27:21;;;;;;;12.48;2.10;;;;;;;;;;4942839;28;20491;-68
2021/12/07 01:33:00;;;;;;;6.45;1.77;;;;;;;;;;4893788;29;20056;-66
2021/12/07 01:36:02;;;;;;;6.68;1.80;;;;;;;;;;4873558;29;20069;-70
2021/12/07 01:42:47;;;;;;;8.63;1.85;;;;;;;;;;4767528;30;20099;-67
2021/12/07 01:44:48;;;;;;;8.50;1.60;;;;;;;;;;4785196;30;20055;-69
2021/12/07 02:01:04;;;;;;;6.20;1.50;;;;;;;;;;4857495;29;20049;-70
2021/12/07 02:03:38;;;;;;;4.93;1.50;;;;;;;;;;4858002;29;20069;-69
2021/12/07 02:06:12;;;;;;;4.22;1.48;;;;;;;;;;4853993;29;20060;-68
2021/12/07 02:08:45;;;;;;;6.07;1.52;;;;;;;;;;4858354;29;20054;-67
2021/12/07 02:11:16;;;;;;;2.40;1.20;;;;;;;;;;4876051;29;20044;-69
2021/12/07 02:16:19;;;;;;;3.92;1.08;;;;;;;;;;4826853;29;20496;-67
2021/12/07 02:18:50;;;;;;;3.20;1.08;;;;;;;;;;4835357;29;20056;-67
2021/12/07 02:21:20;;;;;;;5.10;1.33;;;;;;;;;;4858095;29;20066;-67
2021/12/07 02:23:57;;;;;;;2.13;0.90;;;;;;;;;;4849424;29;20068;-66
2021/12/07 02:26:29;;;;;;;3.58;0.70;;;;;;;;;;4869805;29;20074;-67
2021/12/07 02:29:00;;;;;;;5.78;1.17;;;;;;;;;;4857319;29;20049;-65
2021/12/07 02:31:31;;;;;;;3.15;1.15;;;;;;;;;;4857134;29;20060;-67
2021/12/07 02:34:03;;;;;;;3.03;1.13;;;;;;;;;;4875609;29;20045;-70
2021/12/07 02:36:35;;;;;;;3.28;1.50;;;;;;;;;;4875986;29;20056;-66
2021/12/07 02:39:09;;;;;;;3.80;1.10;;;;;;;;;;4876263;29;20398;-67
2021/12/07 02:41:41;;;;;;;2.63;1.13;;;;;;;;;;4884071;29;20090;-67
2021/12/07 02:44:14;;;;;;;3.88;1.13;;;;;;;;;;4830762;29;20053;-68
2021/12/07 02:46:45;;;;;;;2.22;1.02;;;;;;;;;;4875472;29;20052;-70
2021/12/07 02:49:16;;;;;;;2.55;0.90;;;;;;;;;;4865718;29;20056;-66
2021/12/07 02:51:48;;;;;;;3.00;1.00;;;;;;;;;;4855166;29;20046;-67
2021/12/07 02:54:19;;;;;;;2.25;1.00;;;;;;;;;;4868604;29;20044;-66
2021/12/07 02:56:51;;;;;;;3.20;1.35;;;;;;;;;;4846185;29;20053;-68
2021/12/07 02:59:23;;;;;;;4.03;0.80;;;;;;;;;;4840902;29;20054;-67
2021/12/07 03:02:02;;;;;;;3.67;1.27;;;;;;;;;;4864919;29;20064;-67
2021/12/07 03:04:38;;;;;;;3.92;1.15;;;;;;;;;;4843954;29;20396;-68
2021/12/07 03:07:39;;;;;;;3.00;0.93;;;;;;;;;;4838933;29;20065;-68
2021/12/07 03:25:53;;;;;;;2.95;1.00;;;;;;;;;;4870625;29;20542;-68
2021/12/07 03:27:13;;;;;;;3.25;1.23;;;;;;;;;;4869626;29;20060;-70
2021/12/07 03:29:45;;;;;;;7.88;1.25;;;;;;;;;;4831671;29;20061;-68
2021/12/07 03:32:17;;;;;;;6.50;1.50;;;;;;;;;;4870326;29;20049;-68
2021/12/07 03:34:50;;;;;;;2.50;0.93;;;;;;;;;;4844717;29;20065;-68
2021/12/07 03:37:21;;;;;;;4.22;1.25;;;;;;;;;;4838644;29;20049;-68
2021/12/07 03:39:51;;;;;;;2.90;1.23;;;;;;;;;;4867729;29;20560;-69
2021/12/07 03:42:22;;;;;;;2.97;1.10;;;;;;;;;;4855096;29;20062;-68
2021/12/07 03:44:53;;;;;;;4.22;1.20;;;;;;;;;;4823672;29;20082;-69
2021/12/07 03:47:24;;;;;;;6.13;1.20;;;;;;;;;;4838443;29;20058;-68
2021/12/07 03:49:54;;;;;;;5.80;1.30;;;;;;;;;;4838714;29;20062;-68
2021/12/07 03:52:25;;;;;;;2.65;1.35;;;;;;;;;;4853437;29;20054;-69
2021/12/07 03:54:56;;;;;;;2.83;1.10;;;;;;;;;;4838435;29;20074;-68
2021/12/07 03:57:26;;;;;;;3.20;1.23;;;;;;;;;;4853825;29;20053;-68
2021/12/07 03:59:56;;;;;;;2.72;1.42;;;;;;;;;;4852877;29;20072;-68
2021/12/07 04:02:27;;;;;;;4.45;1.20;;;;;;;;;;4881243;29;20081;-67
2021/12/07 04:05:01;;;;;;;4.65;1.63;;;;;;;;;;4894165;29;20067;-68
2021/12/07 04:07:31;;;;;;;3.47;1.13;;;;;;;;;;4893747;29;20083;-68
2021/12/07 04:10:03;;;;;;;2.45;1.10;;;;;;;;;;4904243;29;20048;-68
2021/12/07 04:12:35;;;;;;;6.95;1.52;;;;;;;;;;4912760;29;20071;-68
2021/12/07 04:15:09;;;;;;;3.00;1.20;;;;;;;;;;4904137;29;20052;-67
2021/12/07 04:17:40;;;;;;;3.75;1.38;;;;;;;;;;4933740;29;20055;-68
2021/12/07 04:20:15;;;;;;;5.43;1.42;;;;;;;;;;4950442;29;20055;-68
2021/12/07 04:22:45;;;;;;;3.85;1.00;;;;;;;;;;4912589;29;20588;-68
2021/12/07 04:25:17;;;;;;;2.88;1.30;;;;;;;;;;4901964;29;20525;-68
2021/12/07 04:27:48;;;;;;;4.53;1.50;;;;;;;;;;4877928;29;20064;-70
2021/12/07 04:30:30;;;;;;;5.43;1.33;;;;;;;;;;4894092;29;20064;-68
2021/12/07 04:33:03;;;;;;;3.60;1.33;;;;;;;;;;4918783;29;20059;-66
2021/12/07 04:35:34;;;;;;;3.28;1.65;;;;;;;;;;4933199;29;20059;-69
2021/12/07 04:38:05;;;;;;;4.38;1.30;;;;;;;;;;4931401;29;20052;-68
2021/12/07 04:40:35;;;;;;;2.28;1.60;;;;;;;;;;4878321;29;20056;-69
2021/12/07 04:43:08;;;;;;;4.85;1.60;;;;;;;;;;4847377;29;20057;-68
2021/12/07 04:59:21;;;;;;;3.40;1.55;;;;;;;;;;4898426;29;20060;-68
2021/12/07 05:01:51;;;;;;;3.22;1.75;;;;;;;;;;4915881;29;20075;-68
2021/12/07 05:04:27;;;;;;;5.15;1.58;;;;;;;;;;4915793;29;20056;-68
2021/12/07 05:07:11;;;;;;;4.57;1.42;;;;;;;;;;4934858;29;20059;-69
2021/12/07 05:12:30;;;;;;;3.65;1.45;;;;;;;;;;4934405;29;20055;-68
2021/12/07 05:15:13;;;;;;;3.75;1.63;;;;;;;;;;4938672;29;20691;-70
2021/12/07 05:18:20;;;;;;;;;;;;;;;;;;;;;
2021/12/07 05:37:56;;;;;;;4.10;1.67;;;;;;;;;;4859173;29;20062;-68
2021/12/07 05:40:30;;;;;;;3.65;1.63;;;;;;;;;;4858740;29;20057;-68
2021/12/07 05:43:02;;;;;;;3.40;1.42;;;;;;;;;;4858819;29;20061;-69
2021/12/07 05:45:35;;;;;;;4.15;1.75;;;;;;;;;;4841811;29;20429;-68
2021/12/07 05:48:08;;;;;;;5.35;1.67;;;;;;;;;;4810136;29;20054;-69
2021/12/07 05:50:41;;;;;;;3.40;1.60;;;;;;;;;;4840441;29;20130;-69
2021/12/07 05:53:12;;;;;;;5.72;1.77;;;;;;;;;;4840225;29;20057;-68
2021/12/07 05:55:43;;;;;;;5.50;1.92;;;;;;;;;;4825011;29;20099;-68
2021/12/07 05:58:16;;;;;;;4.00;1.85;;;;;;;;;;4836547;29;20053;-69
2021/12/07 06:00:49;;;;;;;3.20;1.95;;;;;;;;;;4829649;29;20058;-68
2021/12/07 06:03:19;;;;;;;3.05;1.60;;;;;;;;;;4840203;29;20076;-69
2021/12/07 06:05:50;;;;;;;4.97;1.58;;;;;;;;;;4840230;29;20403;-68
2021/12/07 06:08:22;;;;;;;4.70;1.67;;;;;;;;;;4840447;29;20062;-69
2021/12/07 06:10:52;;;;;;;4.88;1.73;;;;;;;;;;4858353;29;20058;-68
2021/12/07 06:13:23;;;;;;;3.58;1.63;;;;;;;;;;4899261;29;20412;-68
2021/12/07 06:15:53;;;;;;;4.55;1.73;;;;;;;;;;4917815;29;20535;-69
2021/12/07 06:18:24;;;;;;;5.43;1.80;;;;;;;;;;4933074;29;20063;-68
2021/12/07 06:20:54;;;;;;;3.70;1.80;;;;;;;;;;4925883;29;20063;-69
2021/12/07 06:23:25;;;;;;;3.97;1.50;;;;;;;;;;4933200;29;20533;-69
2021/12/07 06:25:56;;;;;;;5.05;1.45;;;;;;;;;;4917403;29;20496;-69
2021/12/07 06:28:27;;;;;;;4.68;1.90;;;;;;;;;;4933219;29;20403;-69
2021/12/07 06:30:58;;;;;;;3.72;1.60;;;;;;;;;;4917348;29;20062;-68
2021/12/07 06:33:29;;;;;;;5.63;2.15;;;;;;;;;;4894923;29;20048;-69
2021/12/07 06:36:02;;;;;;;3.80;2.10;;;;;;;;;;4905425;29;20508;-69
2021/12/07 06:38:34;;;;;;;5.05;1.80;;;;;;;;;;4914294;29;20100;-68
2021/12/07 06:41:05;;;;;;;6.90;1.63;;;;;;;;;;4904426;28;20055;-68
2021/12/07 06:43:36;;;;;;;3.55;1.65;;;;;;;;;;4916757;29;20056;-69
2021/12/07 06:46:06;;;;;;;4.40;1.77;;;;;;;;;;4917556;29;20107;-68
2021/12/07 06:48:37;;;;;;;3.25;1.77;;;;;;;;;;4932464;29;20055;-73
2021/12/07 06:51:08;;;;;;;3.40;1.58;;;;;;;;;;4932847;29;20523;-69
2021/12/07 06:53:39;;;;;;;6.93;1.83;;;;;;;;;;4913593;29;20432;-68
2021/12/07 06:56:10;;;;;;;3.90;1.77;;;;;;;;;;4935380;28;20063;-68
2021/12/07 06:58:41;;;;;;;4.68;1.92;;;;;;;;;;4962033;28;20059;-68
2021/12/07 07:01:12;;;;;;;6.10;1.77;;;;;;;;;;4955398;28;20059;-68
2021/12/07 07:03:43;;;;;;;4.68;2.05;;;;;;;;;;4971128;28;20047;-68
2021/12/07 07:06:13;;;;;;;3.45;2.08;;;;;;;;;;4970977;28;20059;-68
2021/12/07 07:08:44;;;;;;;3.83;2.38;;;;;;;;;;4971012;28;20435;-69
2021/12/07 07:11:14;;;;;;;6.57;1.73;;;;;;;;;;4981677;28;20050;-69
2021/12/07 07:13:46;;;;;;;3.83;1.98;;;;;;;;;;4973871;28;20061;-69
2021/12/07 07:16:17;;;;;;;5.13;2.00;;;;;;;;;;4974049;28;20402;-69
2021/12/07 07:18:48;;;;;;;6.80;2.13;;;;;;;;;;4990534;28;20058;-69
2021/12/07 07:21:18;;;;;;;5.35;2.20;;;;;;;;;;4961288;28;20058;-70
2021/12/07 07:23:51;;;;;;;3.90;1.73;;;;;;;;;;4954201;28;20054;-71
2021/12/07 07:26:21;;;;;;;3.72;1.63;;;;;;;;;;4970536;28;20058;-70
2021/12/07 07:28:52;;;;;;;3.58;1.80;;;;;;;;;;4954131;28;20047;-69
2021/12/07 07:31:22;;;;;;;13.02;2.05;;;;;;;;;;4981475;28;20062;-69
2021/12/07 07:33:53;;;;;;;5.05;2.00;;;;;;;;;;4990070;28;20059;-69
2021/12/07 07:36:23;;;;;;;7.28;2.17;;;;;;;;;;4970411;28;20521;-69
2021/12/07 07:38:54;;;;;;;6.43;2.03;;;;;;;;;;4934872;29;20062;-68
2021/12/07 07:41:24;;;;;;;5.35;1.85;;;;;;;;;;4950972;28;20059;-69
2021/12/07 07:43:55;;;;;;;7.07;1.98;;;;;;;;;;4916113;29;20067;-69
2021/12/07 07:46:26;;;;;;;3.53;1.80;;;;;;;;;;4893964;29;20064;-68
2021/12/07 07:48:58;;;;;;;9.40;2.15;;;;;;;;;;4894459;29;20413;-69
2021/12/07 07:51:28;;;;;;;4.95;1.73;;;;;;;;;;4894164;29;20056;-69
2021/12/07 07:54:00;;;;;;;4.30;1.73;;;;;;;;;;4894015;29;20557;-70
2021/12/07 07:56:30;;;;;;;4.10;2.08;;;;;;;;;;4894033;29;20056;-69
2021/12/07 07:59:01;;;;;;;5.55;1.83;;;;;;;;;;4873260;29;20063;-70
2021/12/07 08:01:32;;;;;;;6.35;1.58;;;;;;;;;;4933071;29;20063;-69
2021/12/07 08:04:04;;;;;;;5.65;1.83;;;;;;;;;;4951251;29;20064;-69
2021/12/07 08:06:34;;;;;;;3.10;1.77;;;;;;;;;;4950649;29;20063;-69
2021/12/07 08:09:08;;;;;;;2.95;1.73;;;;;;;;;;4951777;28;20099;-69
2021/12/07 08:11:39;;;;;;;6.65;1.73;;;;;;;;;;4954390;29;20446;-69
2021/12/07 08:14:09;;;;;;;7.07;2.05;;;;;;;;;;4965254;28;20058;-69
2021/12/07 08:16:39;;;;;;;3.83;1.63;;;;;;;;;;4963125;28;20554;-71
2021/12/07 08:19:09;;;;;;;5.28;1.70;;;;;;;;;;4954765;29;20054;-69
2021/12/07 08:21:40;;;;;;;6.43;2.03;;;;;;;;;;4959446;28;20061;-70
2021/12/07 08:24:10;;;;;;;4.38;1.85;;;;;;;;;;5014790;28;20597;-69
2021/12/07 08:26:40;;;;;;;4.45;1.83;;;;;;;;;;5032510;28;20523;-69
2021/12/07 08:29:10;;;;;;;5.75;2.15;;;;;;;;;;5012462;28;20524;-69
2021/12/07 08:31:43;;;;;;;5.57;2.00;;;;;;;;;;4957257;28;20050;-69
2021/12/07 08:34:13;;;;;;;;;;;;;;;;;;4973769;28;20070;-70
2021/12/07 08:36:43;;;;;;;7.55;2.33;;;;;;;;;;4989442;28;19929;-69
2021/12/07 08:39:15;;;;;;;6.10;3.30;;;;;;;;;;4973691;28;20434;-69
2021/12/07 08:41:45;;;;;;;9.23;2.15;;;;;;;;;;4954011;28;20055;-69
2021/12/07 08:44:15;;;;;;;4.82;2.03;;;;;;;;;;4938219;29;20066;-69
2021/12/07 08:46:46;;;;;;;4.68;2.00;;;;;;;;;;4953692;29;20051;-70
2021/12/07 08:49:18;;;;;;;4.88;2.33;;;;;;;;;;4963489;28;20541;-69
2021/12/07 08:51:50;;;;;;;7.93;2.25;;;;;;;;;;4925610;28;20059;-70
2021/12/07 08:59:37;;;;;;;3.85;2.60;;;;;;;;;;4956973;28;20434;-69
2021/12/07 09:00:11;;;;;;;9.93;2.53;;;;;;;;;;4973325;28;20070;-69
2021/12/07 09:02:41;;;;;;;15.85;2.58;;;;;;;;;;4953702;28;20546;-70
2021/12/07 09:05:12;;;;;;;18.42;2.28;;;;;;;;;;4922065;28;20067;-69
2021/12/07 09:07:42;;;;;;;20.55;2.40;;;;;;;;;;4953765;29;20055;-69
2021/12/07 09:10:13;;;;;;;8.32;1.88;;;;;;;;;;4953908;28;20059;-69
2021/12/07 09:12:44;;;;;;;5.22;1.98;;;;;;;;;;4969530;28;20123;-68
2021/12/07 09:15:14;;;;;;;10.70;2.30;;;;;;;;;;4953434;29;20074;-70
2021/12/07 09:17:45;;;;;;;12.35;1.73;;;;;;;;;;4921567;29;20059;-70
2021/12/07 09:20:16;;;;;;;10.90;1.95;;;;;;;;;;4885528;29;20700;-69
2021/12/07 09:22:47;;;;;;;8.02;1.90;;;;;;;;;;4896583;29;20076;-69
2021/12/07 09:25:18;;;;;;;12.02;2.10;;;;;;;;;;4896002;29;20068;-69
2021/12/07 09:27:50;;;;;;;7.03;2.03;;;;;;;;;;4911729;29;20049;-72
2021/12/07 09:30:23;;;;;;;6.50;2.03;;;;;;;;;;4916491;29;20562;-70
2021/12/07 09:32:54;;;;;;;7.70;1.83;;;;;;;;;;4918845;29;20058;-69
2021/12/07 09:35:24;;;;;;;8.30;2.17;;;;;;;;;;4922025;28;20408;-69
2021/12/07 09:37:56;;;;;;;5.68;1.83;;;;;;;;;;4947771;28;20055;-70
2021/12/07 09:40:28;;;;;;;3.85;1.83;;;;;;;;;;4970336;28;20062;-68
2021/12/07 09:42:59;;;;;;;6.60;2.15;;;;;;;;;;4935378;28;20059;-70
2021/12/07 09:45:30;;;;;;;5.63;2.10;;;;;;;;;;4979150;28;20062;-69
2021/12/07 09:48:03;;;;;;;12.20;2.33;;;;;;;;;;4940894;28;20055;-70
2021/12/07 09:50:34;;;;;;;7.03;2.05;;;;;;;;;;4949062;28;20059;-69
2021/12/07 09:53:07;;;;;;;5.57;2.67;;;;;;;;;;4952315;28;20066;-68
2021/12/07 09:55:38;;;;;;;;;;;;;;;;;;4963537;28;20059;-68
2021/12/07 09:58:09;;;;;;;10.80;2.47;;;;;;;;;;4947983;28;20445;-69
2021/12/07 10:00:39;;;;;;;7.72;2.50;;;;;;;;;;4959379;28;20054;-70
2021/12/07 10:03:11;;;;;;;9.85;2.17;;;;;;;;;;4951874;28;20055;-68
2021/12/07 10:05:43;;;;;;;3.45;1.60;;;;;;;;;;4952164;29;20059;-69
2021/12/07 10:08:14;;;;;;;9.13;2.70;;;;;;;;;;4915165;29;20559;-69
2021/12/07 10:10:55;;;;;;;5.55;2.08;;;;;;;;;;4933409;28;20056;-68
2021/12/07 10:13:29;;;;;;;10.10;1.35;;;;;;;;;;4933707;29;20067;-68
2021/12/07 10:16:06;;;;;;;3.60;1.50;;;;;;;;;;4920421;29;20064;-67
2021/12/07 10:18:42;;;;;;;3.15;0.90;;;;;;;;;;4914547;29;20099;-68
2021/12/07 10:21:25;;;;;;;4.20;1.83;;;;;;;;;;4910516;29;20048;-68
2021/12/07 10:24:06;;;;;;;3.70;0.98;;;;;;;;;;4895505;29;20104;-67
2021/12/07 10:26:43;;;;;;;3.53;1.42;;;;;;;;;;4909565;29;20133;-69
2021/12/07 10:29:20;;;;;;;2.90;1.33;;;;;;;;;;4932223;29;20048;-67
2021/12/07 10:31:56;;;;;;;3.58;1.05;;;;;;;;;;4932336;29;20079;-68
2021/12/07 10:34:30;;;;;;;2.80;1.45;;;;;;;;;;4931884;29;20523;-67
2021/12/07 10:37:15;;;;;;;2.53;1.02;;;;;;;;;;4949754;28;20051;-67
2021/12/07 10:39:51;;;;;;;3.38;1.05;;;;;;;;;;4983962;28;20050;-66
2021/12/07 10:42:30;;;;;;;2.83;0.70;;;;;;;;;;4985013;28;20050;-67
2021/12/07 10:45:06;;;;;;;2.78;1.60;;;;;;;;;;4972585;28;20050;-68
2021/12/07 10:47:37;;;;;;;4.32;0.93;;;;;;;;;;4977654;28;20083;-67
2021/12/07 10:50:13;;;;;;;2.03;0.80;;;;;;;;;;4932113;29;20416;-65
2021/12/07 10:52:45;;;;;;;4.05;0.73;;;;;;;;;;4932479;29;20463;-68
2021/12/07 10:55:26;;;;;;;3.00;0.55;;;;;;;;;;4932325;29;20385;-66
2021/12/07 10:58:00;;;;;;;1.75;0.47;;;;;;;;;;4933290;28;20056;-65
2021/12/07 11:00:41;;;;;;;1.85;0.57;;;;;;;;;;4962035;28;20051;-65
2021/12/07 11:03:19;;;;;;;2.53;0.57;;;;;;;;;;4957520;28;20055;-65
2021/12/07 11:05:54;;;;;;;3.58;0.70;;;;;;;;;;4972471;28;20061;-63
2021/12/07 11:08:32;;;;;;;2.33;0.80;;;;;;;;;;5019463;28;20088;-66
2021/12/07 11:11:04;;;;;;;2.88;0.73;;;;;;;;;;4981149;28;20061;-66
2021/12/07 11:13:37;;;;;;;1.50;0.80;;;;;;;;;;5009651;28;20508;-66
2021/12/07 11:16:13;;;;;;;3.63;0.50;;;;;;;;;;5009818;28;20069;-67
2021/12/07 11:18:48;;;;;;;1.17;0.50;;;;;;;;;;5009616;28;20054;-65
2021/12/07 11:21:20;;;;;;;2.78;0.52;;;;;;;;;;5010159;28;20151;-65
2021/12/07 11:23:57;;;;;;;3.15;1.10;;;;;;;;;;5009874;28;20058;-66
2021/12/07 11:31:49;;;;;;;1.02;0.52;;;;;;;;;;4989778;28;20066;-65
2021/12/07 11:34:37;;;;;;;1.08;0.60;;;;;;;;;;4969952;28;20051;-66
2021/12/07 11:37:13;;;;;;;2.25;0.65;;;;;;;;;;4970368;28;20050;-66
2021/12/07 11:39:51;;;;;;;3.30;0.60;;;;;;;;;;4970680;28;20062;-65
2021/12/07 11:42:23;;;;;;;2.40;0.70;;;;;;;;;;4955087;28;20055;-64
2021/12/07 11:44:55;;;;;;;;;;;;;;;;;;4970439;28;20055;-68
2021/12/07 11:47:33;;;;;;;3.17;0.90;;;;;;;;;;4970866;28;19922;-65
2021/12/07 11:50:22;;;;;;;3.17;1.17;;;;;;;;;;4955200;28;20446;-66
2021/12/07 11:52:57;;;;;;;4.82;1.00;;;;;;;;;;4989800;28;20061;-63
2021/12/07 11:55:29;;;;;;;3.83;0.82;;;;;;;;;;4992247;28;20050;-62
2021/12/07 11:58:01;;;;;;;2.97;0.73;;;;;;;;;;5009462;28;20061;-63
2021/12/07 12:00:35;;;;;;;3.00;0.80;;;;;;;;;;4976842;28;20046;-64
2021/12/07 12:03:09;;;;;;;2.35;0.63;;;;;;;;;;5009304;28;20057;-65
2021/12/07 12:05:43;;;;;;;2.20;0.70;;;;;;;;;;5009624;28;20066;-64
2021/12/07 12:08:19;;;;;;;2.80;0.80;;;;;;;;;;5009842;28;20057;-66
2021/12/07 12:11:06;;;;;;;4.70;0.75;;;;;;;;;;5011429;28;20053;-67
2021/12/07 12:14:08;;;;;;;1.45;0.90;;;;;;;;;;5049215;28;20045;-64
2021/12/07 12:17:30;;;;;;;3.00;1.30;;;;;;;;;;5025834;28;20053;-64
2021/12/07 12:20:21;;;;;;;6.93;0.93;;;;;;;;;;4912800;29;20053;-66
2021/12/07 12:23:07;;;;;;;1.40;0.85;;;;;;;;;;4893659;29;20408;-65
2021/12/07 12:25:37;;;;;;;1.80;0.60;;;;;;;;;;4874626;29;20596;-65
2021/12/07 12:28:08;;;;;;;0.85;0.45;;;;;;;;;;4874931;29;20529;-68
2021/12/07 12:30:42;;;;;;;3.83;0.65;;;;;;;;;;4858616;29;20049;-64
2021/12/07 12:33:14;;;;;;;4.88;1.30;;;;;;;;;;4848663;29;20058;-67
2021/12/07 12:35:54;;;;;;;2.28;0.40;;;;;;;;;;4837417;29;20428;-66
2021/12/07 12:38:28;;;;;;;0.82;0.40;;;;;;;;;;4838109;29;20518;-63
2021/12/07 12:41:12;;;;;;;1.88;0.40;;;;;;;;;;4805750;29;20065;-65
2021/12/07 12:43:51;;;;;;;1.33;0.63;;;;;;;;;;4791984;29;20057;-65
2021/12/07 12:46:27;;;;;;;2.17;0.40;;;;;;;;;;4832575;29;20057;-65
2021/12/07 12:49:07;;;;;;;2.85;0.40;;;;;;;;;;4803967;29;20456;-65
2021/12/07 12:51:48;;;;;;;2.67;0.95;;;;;;;;;;4819872;29;20061;-64
2021/12/07 12:54:19;;;;;;;4.18;1.52;;;;;;;;;;4819556;29;20055;-63
2021/12/07 12:56:50;;;;;;;3.13;0.40;;;;;;;;;;4838452;29;20406;-65
2021/12/07 12:59:22;;;;;;;2.35;0.75;;;;;;;;;;4878365;29;20056;-64
2021/12/07 13:01:57;;;;;;;1.95;0.75;;;;;;;;;;4915999;29;20757;-64
2021/12/07 13:04:31;;;;;;;3.35;1.10;;;;;;;;;;4915266;29;20397;-65
2021/12/07 13:09:43;;;;;;;2.55;1.35;;;;;;;;;;4975098;28;20565;-66
2021/12/07 13:12:33;;;;;;;1.48;0.40;;;;;;;;;;5002093;28;20054;-65
2021/12/07 13:15:11;;;;;;;1.63;0.75;;;;;;;;;;4950528;28;20391;-67
2021/12/07 13:17:48;;;;;;;3.88;1.75;;;;;;;;;;5003317;28;20054;-67
2021/12/07 13:20:27;;;;;;;2.78;0.50;;;;;;;;;;4981585;28;20049;-63
2021/12/07 13:23:07;;;;;;;2.00;0.68;;;;;;;;;;4960833;28;20055;-62
2021/12/07 13:25:45;;;;;;;0.60;0.30;;;;;;;;;;4993608;28;20066;-63
2021/12/07 13:28:28;;;;;;;0.65;0.30;;;;;;;;;;5011342;28;20061;-65
2021/12/07 13:31:10;;;;;;;0.68;0.40;;;;;;;;;;4991595;28;20050;-64
2021/12/07 13:33:51;;;;;;;1.10;0.40;;;;;;;;;;4991729;28;20049;-66
2021/12/07 13:36:46;;;;;;;1.33;0.43;;;;;;;;;;4976877;28;20057;-65
2021/12/07 13:39:18;;;;;;;2.25;0.55;;;;;;;;;;4992209;28;20062;-65
2021/12/07 13:42:08;;;;;;;2.13;0.45;;;;;;;;;;4992250;28;20054;-65
2021/12/07 13:44:49;;;;;;;3.08;1.33;;;;;;;;;;4976522;28;20518;-64
2021/12/07 13:47:24;;;;;;;1.27;0.43;;;;;;;;;;4991454;28;20051;-63
2021/12/07 13:50:17;;;;;;;2.30;0.30;;;;;;;;;;4988579;28;20066;-65
2021/12/07 13:52:59;;;;;;;0.95;0.30;;;;;;;;;;4977013;28;20046;-63
2021/12/07 13:55:35;;;;;;;0.52;0.40;;;;;;;;;;4972144;28;20410;-63
2021/12/07 13:58:05;;;;;;;2.35;0.35;;;;;;;;;;4993673;28;20208;-70
2021/12/07 14:00:37;;;;;;;3.88;0.32;;;;;;;;;;5012146;28;20057;-64
2021/12/07 14:03:11;;;;;;;0.90;0.38;;;;;;;;;;4971382;28;20046;-67
2021/12/07 14:05:46;;;;;;;2.72;0.30;;;;;;;;;;4973868;28;20047;-66
2021/12/07 14:08:17;;;;;;;0.55;0.30;;;;;;;;;;4991040;28;20054;-64
2021/12/07 14:10:50;;;;;;;2.53;0.60;;;;;;;;;;4981215;28;20069;-63
2021/12/07 14:13:21;;;;;;;1.50;0.40;;;;;;;;;;4971199;28;20062;-65
2021/12/07 14:16:09;;;;;;;0.77;0.30;;;;;;;;;;4969906;28;20057;-63
2021/12/07 14:18:46;;;;;;;0.60;0.35;;;;;;;;;;4976676;28;20641;-63
2021/12/07 14:21:17;;;;;;;0.52;0.35;;;;;;;;;;4940331;28;20050;-68
2021/12/07 14:24:03;;;;;;;3.08;0.40;;;;;;;;;;4973363;28;20049;-66
2021/12/07 14:26:37;;;;;;;2.05;0.50;;;;;;;;;;4978065;28;20046;-66
2021/12/07 14:29:19;;;;;;;1.13;0.47;;;;;;;;;;4972806;28;20050;-63
2021/12/07 14:31:58;;;;;;;3.08;0.32;;;;;;;;;;4984744;28;20050;-66
2021/12/07 14:34:31;;;;;;;1.13;0.40;;;;;;;;;;5019685;28;20056;-65
2021/12/07 14:37:05;;;;;;;1.23;0.30;;;;;;;;;;4960591;28;20058;-64
2021/12/07 14:39:41;;;;;;;0.70;0.30;;;;;;;;;;4952091;28;20055;-64
2021/12/07 14:42:15;;;;;;;0.95;0.45;;;;;;;;;;4981639;28;20046;-63
2021/12/07 14:44:56;;;;;;;0.90;0.30;;;;;;;;;;4987802;28;20065;-62
2021/12/07 14:47:28;;;;;;;1.00;0.40;;;;;;;;;;4966887;28;20062;-64
2021/12/07 14:50:00;;;;;;;3.60;0.47;;;;;;;;;;4990663;28;20152;-64
2021/12/07 14:52:33;;;;;;;2.22;0.38;;;;;;;;;;4990490;28;20747;-64
2021/12/07 14:55:08;;;;;;;1.73;0.40;;;;;;;;;;5010377;28;20449;-64
2021/12/07 14:57:40;;;;;;;3.53;0.47;;;;;;;;;;4970924;28;20514;-64
2021/12/07 15:00:11;;;;;;;0.77;0.32;;;;;;;;;;4971107;28;20063;-64
2021/12/07 15:02:42;;;;;;;3.03;0.55;;;;;;;;;;4971215;28;20502;-64
2021/12/07 15:05:12;;;;;;;2.35;0.52;;;;;;;;;;4971433;28;20070;-71
2021/12/07 15:07:44;;;;;;;3.00;0.73;;;;;;;;;;4951565;28;20409;-62
2021/12/07 15:10:18;;;;;;;0.77;0.40;;;;;;;;;;4936072;28;20062;-66
2021/12/07 15:12:49;;;;;;;4.82;0.43;;;;;;;;;;4951280;28;20454;-65
2021/12/07 15:15:21;;;;;;;2.20;0.30;;;;;;;;;;4951711;28;20055;-67
2021/12/07 15:17:52;;;;;;;3.45;0.50;;;;;;;;;;4919714;29;20069;-64
2021/12/07 15:20:23;;;;;;;1.17;0.55;;;;;;;;;;4966603;28;20051;-63
2021/12/07 15:22:53;;;;;;;2.72;0.45;;;;;;;;;;4951837;29;20062;-65
2021/12/07 15:25:23;;;;;;;2.83;0.52;;;;;;;;;;4932403;29;20059;-65
2021/12/07 15:27:53;;;;;;;0.40;0.30;;;;;;;;;;4932639;29;20063;-65
2021/12/07 15:30:25;;;;;;;2.17;0.60;;;;;;;;;;4932502;29;20051;-65
2021/12/07 15:32:55;;;;;;;0.73;0.40;;;;;;;;;;4932098;29;20062;-64
2021/12/07 15:35:27;;;;;;;0.88;0.40;;;;;;;;;;4943361;29;20055;-64
2021/12/07 15:37:58;;;;;;;1.08;0.70;;;;;;;;;;4951443;29;20977;-64
2021/12/07 15:40:28;;;;;;;1.92;0.50;;;;;;;;;;4967050;28;20055;-65
2021/12/07 15:42:59;;;;;;;1.00;0.40;;;;;;;;;;4951264;29;20074;-62
2021/12/07 15:45:29;;;;;;;0.90;0.45;;;;;;;;;;4951594;29;20064;-67
2021/12/07 15:48:00;;;;;;;1.42;0.35;;;;;;;;;;4951189;29;20550;-62
2021/12/07 15:50:32;;;;;;;0.95;0.40;;;;;;;;;;4941366;29;20060;-61
2021/12/07 15:53:08;;;;;;;2.28;0.60;;;;;;;;;;4969956;28;20047;-63
2021/12/07 15:55:41;;;;;;;1.30;0.32;;;;;;;;;;4970549;28;20058;-63
2021/12/07 15:58:17;;;;;;;2.55;0.55;;;;;;;;;;4981659;28;20426;-63
2021/12/07 16:01:01;;;;;;;1.42;0.30;;;;;;;;;;4989999;28;20046;-63
2021/12/07 16:03:35;;;;;;;;;;;;;;;;;;4984225;28;20057;-62
2021/12/07 16:06:28;;;;;;;1.08;0.60;;;;;;;;;;4989811;28;19932;-63
2021/12/07 16:08:58;;;;;;;0.50;0.35;;;;;;;;;;4989983;28;20553;-61
2021/12/07 16:11:30;;;;;;;2.20;0.40;;;;;;;;;;4989475;28;20054;-63
2021/12/07 16:14:01;;;;;;;2.58;0.30;;;;;;;;;;4935263;29;20047;-63
2021/12/07 16:16:31;;;;;;;1.13;0.30;;;;;;;;;;4935525;29;20060;-62
2021/12/07 16:19:03;;;;;;;0.60;0.30;;;;;;;;;;4935915;28;20069;-64
2021/12/07 16:21:34;;;;;;;1.75;0.30;;;;;;;;;;4970387;28;20063;-66
2021/12/07 16:24:07;;;;;;;2.80;0.65;;;;;;;;;;4970096;28;20454;-64
2021/12/07 16:26:38;;;;;;;0.93;0.38;;;;;;;;;;4969647;28;20051;-64
2021/12/07 16:29:08;;;;;;;2.28;0.30;;;;;;;;;;4934971;29;20055;-64
2021/12/07 16:31:38;;;;;;;4.13;0.63;;;;;;;;;;4935359;29;20063;-62
2021/12/07 16:34:09;;;;;;;0.55;0.25;;;;;;;;;;4935394;29;20060;-62
2021/12/07 16:36:39;;;;;;;1.27;0.32;;;;;;;;;;4934924;29;20064;-63
2021/12/07 16:39:09;;;;;;;4.47;0.55;;;;;;;;;;4916090;29;20051;-63
2021/12/07 16:41:40;;;;;;;1.75;0.35;;;;;;;;;;4929172;29;20415;-64
2021/12/07 16:44:10;;;;;;;1.30;0.52;;;;;;;;;;4935239;29;20082;-64
2021/12/07 16:46:41;;;;;;;2.15;0.32;;;;;;;;;;4887973;29;20508;-64
2021/12/07 16:49:12;;;;;;;4.70;0.98;;;;;;;;;;4915781;29;20078;-63
2021/12/07 16:51:43;;;;;;;0.90;0.30;;;;;;;;;;4887301;29;20056;-63
2021/12/07 16:54:14;;;;;;;;;;;;;;;;;;4863367;29;20625;-68
2021/12/07 16:56:44;;;;;;;5.28;0.30;;;;;;;;;;4878199;29;19928;-64
2021/12/07 16:59:14;;;;;;;2.20;0.40;;;;;;;;;;4878081;29;20053;-65
2021/12/07 17:01:44;;;;;;;2.53;0.30;;;;;;;;;;4887880;29;20397;-62
2021/12/07 17:04:14;;;;;;;3.38;0.45;;;;;;;;;;4897417;29;20060;-63
2021/12/07 17:06:45;;;;;;;0.93;0.38;;;;;;;;;;4905678;29;20412;-62